sensor_id;sensor_type;location;lat;lon;timestamp;P1;durP1;ratioP1;P2;durP2;ratioP2
8704;SDS011;4389;41.932;25.904;2024-02-21T00:02:22;15.10;;;11.20;;
8704;SDS011;4389;41.932;25.904;2024-02-21T00:04:49;20.47;;;11.83;;
8704;SDS011;4389;41.932;25.904;2024-02-21T00:07:16;20.77;;;13.27;;
8704;SDS011;4389;41.932;25.904;2024-02-21T00:09:44;20.87;;;13.73;;
8704;SDS011;4389;41.932;25.904;2024-02-21T00:12:11;19.83;;;13.90;;
8704;SDS011;4389;41.932;25.904;2024-02-21T00:14:39;18.40;;;13.47;;
8704;SDS011;4389;41.932;25.904;2024-02-21T00:17:05;20.03;;;12.83;;
8704;SDS011;4389;41.932;25.904;2024-02-21T00:19:33;17.53;;;13.63;;
8704;SDS011;4389;41.932;25.904;2024-02-21T00:22:00;22.23;;;12.77;;
8704;SDS011;4389;41.932;25.904;2024-02-21T00:24:27;21.60;;;12.83;;
8704;SDS011;4389;41.932;25.904;2024-02-21T00:26:55;14.90;;;11.20;;
8704;SDS011;4389;41.932;25.904;2024-02-21T00:29:22;14.93;;;11.40;;
8704;SDS011;4389;41.932;25.904;2024-02-21T00:31:49;15.20;;;11.53;;
8704;SDS011;4389;41.932;25.904;2024-02-21T00:34:15;17.03;;;11.37;;
8704;SDS011;4389;41.932;25.904;2024-02-21T00:36:42;14.37;;;11.13;;
8704;SDS011;4389;41.932;25.904;2024-02-21T00:39:09;13.40;;;10.97;;
8704;SDS011;4389;41.932;25.904;2024-02-21T00:41:36;14.73;;;11.03;;
8704;SDS011;4389;41.932;25.904;2024-02-21T00:44:04;13.83;;;10.27;;
8704;SDS011;4389;41.932;25.904;2024-02-21T00:46:31;15.47;;;11.67;;
8704;SDS011;4389;41.932;25.904;2024-02-21T00:48:58;15.77;;;12.23;;
8704;SDS011;4389;41.932;25.904;2024-02-21T00:51:25;18.87;;;12.53;;
8704;SDS011;4389;41.932;25.904;2024-02-21T00:53:52;15.83;;;13.20;;
8704;SDS011;4389;41.932;25.904;2024-02-21T00:56:19;21.47;;;12.63;;
8704;SDS011;4389;41.932;25.904;2024-02-21T00:58:45;21.20;;;12.77;;
8704;SDS011;4389;41.932;25.904;2024-02-21T01:01:13;18.20;;;13.20;;
8704;SDS011;4389;41.932;25.904;2024-02-21T01:03:47;19.80;;;14.00;;
8704;SDS011;4389;41.932;25.904;2024-02-21T01:06:14;18.57;;;13.83;;
8704;SDS011;4389;41.932;25.904;2024-02-21T01:08:41;19.60;;;14.37;;
8704;SDS011;4389;41.932;25.904;2024-02-21T01:11:08;19.67;;;12.93;;
8704;SDS011;4389;41.932;25.904;2024-02-21T01:13:34;19.10;;;13.10;;
8704;SDS011;4389;41.932;25.904;2024-02-21T01:16:01;15.97;;;12.93;;
8704;SDS011;4389;41.932;25.904;2024-02-21T01:18:29;18.03;;;13.07;;
8704;SDS011;4389;41.932;25.904;2024-02-21T01:20:56;15.97;;;12.37;;
8704;SDS011;4389;41.932;25.904;2024-02-21T01:23:23;15.77;;;12.47;;
8704;SDS011;4389;41.932;25.904;2024-02-21T01:25:50;18.00;;;13.17;;
8704;SDS011;4389;41.932;25.904;2024-02-21T01:28:17;16.70;;;12.53;;
8704;SDS011;4389;41.932;25.904;2024-02-21T01:30:45;39.10;;;14.13;;
8704;SDS011;4389;41.932;25.904;2024-02-21T01:33:11;20.67;;;12.53;;
8704;SDS011;4389;41.932;25.904;2024-02-21T01:35:40;17.17;;;12.83;;
8704;SDS011;4389;41.932;25.904;2024-02-21T01:38:07;16.70;;;12.30;;
8704;SDS011;4389;41.932;25.904;2024-02-21T01:40:34;17.87;;;12.73;;
8704;SDS011;4389;41.932;25.904;2024-02-21T01:43:01;22.77;;;13.33;;
8704;SDS011;4389;41.932;25.904;2024-02-21T01:45:28;19.37;;;11.97;;
8704;SDS011;4389;41.932;25.904;2024-02-21T01:47:55;16.57;;;12.70;;
8704;SDS011;4389;41.932;25.904;2024-02-21T01:50:22;15.93;;;11.57;;
8704;SDS011;4389;41.932;25.904;2024-02-21T01:52:51;18.67;;;12.20;;
8704;SDS011;4389;41.932;25.904;2024-02-21T01:55:18;17.00;;;12.53;;
8704;SDS011;4389;41.932;25.904;2024-02-21T01:57:46;19.93;;;13.47;;
8704;SDS011;4389;41.932;25.904;2024-02-21T02:00:13;20.97;;;13.80;;
8704;SDS011;4389;41.932;25.904;2024-02-21T02:02:41;16.70;;;13.17;;
8704;SDS011;4389;41.932;25.904;2024-02-21T02:05:08;17.30;;;12.93;;
8704;SDS011;4389;41.932;25.904;2024-02-21T02:07:36;19.27;;;12.67;;
8704;SDS011;4389;41.932;25.904;2024-02-21T02:10:04;17.40;;;12.10;;
8704;SDS011;4389;41.932;25.904;2024-02-21T02:12:32;16.27;;;12.57;;
8704;SDS011;4389;41.932;25.904;2024-02-21T02:14:59;19.07;;;13.87;;
8704;SDS011;4389;41.932;25.904;2024-02-21T02:17:26;16.37;;;12.37;;
8704;SDS011;4389;41.932;25.904;2024-02-21T02:19:53;14.13;;;11.80;;
8704;SDS011;4389;41.932;25.904;2024-02-21T02:22:22;20.27;;;13.30;;
8704;SDS011;4389;41.932;25.904;2024-02-21T02:24:55;17.70;;;13.13;;
8704;SDS011;4389;41.932;25.904;2024-02-21T02:27:22;16.57;;;12.67;;
8704;SDS011;4389;41.932;25.904;2024-02-21T02:29:49;19.03;;;13.33;;
8704;SDS011;4389;41.932;25.904;2024-02-21T02:32:17;21.60;;;13.10;;
8704;SDS011;4389;41.932;25.904;2024-02-21T02:34:44;16.73;;;12.80;;
8704;SDS011;4389;41.932;25.904;2024-02-21T02:37:11;15.87;;;12.00;;
8704;SDS011;4389;41.932;25.904;2024-02-21T02:39:38;20.07;;;13.37;;
8704;SDS011;4389;41.932;25.904;2024-02-21T02:42:06;15.67;;;12.73;;
8704;SDS011;4389;41.932;25.904;2024-02-21T02:44:33;18.03;;;13.47;;
8704;SDS011;4389;41.932;25.904;2024-02-21T02:47:00;20.17;;;13.73;;
8704;SDS011;4389;41.932;25.904;2024-02-21T02:49:27;18.07;;;13.17;;
8704;SDS011;4389;41.932;25.904;2024-02-21T02:51:54;16.40;;;13.50;;
8704;SDS011;4389;41.932;25.904;2024-02-21T02:54:21;21.67;;;13.57;;
8704;SDS011;4389;41.932;25.904;2024-02-21T02:56:48;18.77;;;13.97;;
8704;SDS011;4389;41.932;25.904;2024-02-21T02:59:18;17.80;;;14.97;;
8704;SDS011;4389;41.932;25.904;2024-02-21T03:01:45;17.10;;;14.27;;
8704;SDS011;4389;41.932;25.904;2024-02-21T03:04:12;16.87;;;14.20;;
8704;SDS011;4389;41.932;25.904;2024-02-21T03:06:39;27.50;;;15.27;;
8704;SDS011;4389;41.932;25.904;2024-02-21T03:09:05;17.93;;;14.07;;
8704;SDS011;4389;41.932;25.904;2024-02-21T03:11:33;20.40;;;14.70;;
8704;SDS011;4389;41.932;25.904;2024-02-21T03:14:02;19.40;;;14.40;;
8704;SDS011;4389;41.932;25.904;2024-02-21T03:16:31;51.67;;;37.23;;
8704;SDS011;4389;41.932;25.904;2024-02-21T03:18:58;24.10;;;16.73;;
8704;SDS011;4389;41.932;25.904;2024-02-21T03:21:25;24.47;;;13.90;;
8704;SDS011;4389;41.932;25.904;2024-02-21T03:23:51;20.13;;;13.57;;
8704;SDS011;4389;41.932;25.904;2024-02-21T03:26:18;18.70;;;14.00;;
8704;SDS011;4389;41.932;25.904;2024-02-21T03:28:45;22.73;;;18.43;;
8704;SDS011;4389;41.932;25.904;2024-02-21T03:31:12;26.47;;;14.43;;
8704;SDS011;4389;41.932;25.904;2024-02-21T03:33:41;18.47;;;15.43;;
8704;SDS011;4389;41.932;25.904;2024-02-21T03:36:12;20.57;;;14.70;;
8704;SDS011;4389;41.932;25.904;2024-02-21T03:38:39;20.30;;;14.77;;
8704;SDS011;4389;41.932;25.904;2024-02-21T03:41:06;16.90;;;13.57;;
8704;SDS011;4389;41.932;25.904;2024-02-21T03:43:33;23.57;;;16.67;;
8704;SDS011;4389;41.932;25.904;2024-02-21T03:46:00;21.97;;;15.30;;
8704;SDS011;4389;41.932;25.904;2024-02-21T03:48:27;20.13;;;13.77;;
8704;SDS011;4389;41.932;25.904;2024-02-21T03:50:55;17.80;;;13.93;;
8704;SDS011;4389;41.932;25.904;2024-02-21T03:53:22;67.47;;;18.00;;
8704;SDS011;4389;41.932;25.904;2024-02-21T03:55:49;34.40;;;15.17;;
8704;SDS011;4389;41.932;25.904;2024-02-21T03:58:16;25.07;;;18.37;;
8704;SDS011;4389;41.932;25.904;2024-02-21T04:00:43;39.17;;;34.47;;
8704;SDS011;4389;41.932;25.904;2024-02-21T04:03:09;25.57;;;17.93;;
8704;SDS011;4389;41.932;25.904;2024-02-21T04:05:36;55.53;;;50.33;;
8704;SDS011;4389;41.932;25.904;2024-02-21T04:08:05;43.50;;;38.67;;
8704;SDS011;4389;41.932;25.904;2024-02-21T04:10:33;37.50;;;30.17;;
8704;SDS011;4389;41.932;25.904;2024-02-21T04:13:00;26.63;;;21.03;;
8704;SDS011;4389;41.932;25.904;2024-02-21T04:15:27;28.23;;;24.10;;
8704;SDS011;4389;41.932;25.904;2024-02-21T04:17:54;26.00;;;20.50;;
8704;SDS011;4389;41.932;25.904;2024-02-21T04:20:20;26.30;;;20.40;;
8704;SDS011;4389;41.932;25.904;2024-02-21T04:22:47;30.63;;;20.90;;
8704;SDS011;4389;41.932;25.904;2024-02-21T04:25:16;27.00;;;20.07;;
8704;SDS011;4389;41.932;25.904;2024-02-21T04:27:42;30.53;;;22.30;;
8704;SDS011;4389;41.932;25.904;2024-02-21T04:30:09;33.40;;;21.73;;
8704;SDS011;4389;41.932;25.904;2024-02-21T04:32:37;28.47;;;22.13;;
8704;SDS011;4389;41.932;25.904;2024-02-21T04:35:04;22.03;;;18.37;;
8704;SDS011;4389;41.932;25.904;2024-02-21T04:37:32;24.43;;;19.50;;
8704;SDS011;4389;41.932;25.904;2024-02-21T04:39:59;23.37;;;19.23;;
8704;SDS011;4389;41.932;25.904;2024-02-21T04:42:27;27.23;;;22.40;;
8704;SDS011;4389;41.932;25.904;2024-02-21T04:44:54;23.57;;;19.43;;
8704;SDS011;4389;41.932;25.904;2024-02-21T04:47:21;27.67;;;20.20;;
8704;SDS011;4389;41.932;25.904;2024-02-21T04:49:50;26.07;;;19.47;;
8704;SDS011;4389;41.932;25.904;2024-02-21T04:52:17;25.07;;;19.80;;
8704;SDS011;4389;41.932;25.904;2024-02-21T04:54:43;23.43;;;16.77;;
8704;SDS011;4389;41.932;25.904;2024-02-21T04:57:10;28.27;;;21.33;;
8704;SDS011;4389;41.932;25.904;2024-02-21T04:59:43;29.10;;;21.27;;
8704;SDS011;4389;41.932;25.904;2024-02-21T05:02:10;27.13;;;20.93;;
8704;SDS011;4389;41.932;25.904;2024-02-21T05:04:37;24.73;;;19.57;;
8704;SDS011;4389;41.932;25.904;2024-02-21T05:07:05;24.50;;;19.97;;
8704;SDS011;4389;41.932;25.904;2024-02-21T05:09:32;26.07;;;18.53;;
8704;SDS011;4389;41.932;25.904;2024-02-21T05:11:58;24.70;;;19.43;;
8704;SDS011;4389;41.932;25.904;2024-02-21T05:14:25;29.20;;;20.07;;
8704;SDS011;4389;41.932;25.904;2024-02-21T05:16:54;33.03;;;21.27;;
8704;SDS011;4389;41.932;25.904;2024-02-21T05:19:21;38.57;;;28.37;;
8704;SDS011;4389;41.932;25.904;2024-02-21T05:21:48;40.47;;;31.30;;
8704;SDS011;4389;41.932;25.904;2024-02-21T05:24:15;48.03;;;33.93;;
8704;SDS011;4389;41.932;25.904;2024-02-21T05:26:41;48.70;;;33.40;;
8704;SDS011;4389;41.932;25.904;2024-02-21T05:29:08;45.33;;;31.70;;
8704;SDS011;4389;41.932;25.904;2024-02-21T05:31:43;34.83;;;22.17;;
8704;SDS011;4389;41.932;25.904;2024-02-21T05:34:23;38.90;;;23.63;;
8704;SDS011;4389;41.932;25.904;2024-02-21T05:36:50;42.70;;;29.33;;
8704;SDS011;4389;41.932;25.904;2024-02-21T05:39:17;47.80;;;38.47;;
8704;SDS011;4389;41.932;25.904;2024-02-21T05:41:44;37.80;;;25.43;;
8704;SDS011;4389;41.932;25.904;2024-02-21T05:44:12;32.60;;;27.40;;
8704;SDS011;4389;41.932;25.904;2024-02-21T05:46:38;38.80;;;22.53;;
8704;SDS011;4389;41.932;25.904;2024-02-21T05:49:06;37.50;;;25.40;;
8704;SDS011;4389;41.932;25.904;2024-02-21T05:51:34;36.97;;;25.70;;
8704;SDS011;4389;41.932;25.904;2024-02-21T05:54:01;35.90;;;23.23;;
8704;SDS011;4389;41.932;25.904;2024-02-21T05:56:28;40.00;;;22.87;;
8704;SDS011;4389;41.932;25.904;2024-02-21T05:58:55;27.37;;;18.87;;
8704;SDS011;4389;41.932;25.904;2024-02-21T06:01:22;36.03;;;25.70;;
8704;SDS011;4389;41.932;25.904;2024-02-21T06:03:49;26.23;;;19.80;;
8704;SDS011;4389;41.932;25.904;2024-02-21T06:06:17;32.23;;;20.53;;
8704;SDS011;4389;41.932;25.904;2024-02-21T06:08:44;32.03;;;20.93;;
8704;SDS011;4389;41.932;25.904;2024-02-21T06:11:11;28.33;;;18.73;;
8704;SDS011;4389;41.932;25.904;2024-02-21T06:13:38;37.73;;;21.83;;
8704;SDS011;4389;41.932;25.904;2024-02-21T06:16:06;34.20;;;21.37;;
8704;SDS011;4389;41.932;25.904;2024-02-21T06:18:34;38.43;;;21.47;;
8704;SDS011;4389;41.932;25.904;2024-02-21T06:21:02;38.10;;;29.50;;
8704;SDS011;4389;41.932;25.904;2024-02-21T06:23:30;33.03;;;24.23;;
8704;SDS011;4389;41.932;25.904;2024-02-21T06:25:57;31.83;;;23.20;;
8704;SDS011;4389;41.932;25.904;2024-02-21T06:28:24;41.37;;;26.50;;
8704;SDS011;4389;41.932;25.904;2024-02-21T06:30:51;39.77;;;27.90;;
8704;SDS011;4389;41.932;25.904;2024-02-21T06:33:18;39.80;;;29.97;;
8704;SDS011;4389;41.932;25.904;2024-02-21T06:35:48;46.53;;;29.23;;
8704;SDS011;4389;41.932;25.904;2024-02-21T06:38:17;50.47;;;28.87;;
8704;SDS011;4389;41.932;25.904;2024-02-21T06:40:45;42.53;;;27.73;;
8704;SDS011;4389;41.932;25.904;2024-02-21T06:43:16;42.27;;;30.33;;
8704;SDS011;4389;41.932;25.904;2024-02-21T06:45:44;51.67;;;33.13;;
8704;SDS011;4389;41.932;25.904;2024-02-21T06:48:12;41.57;;;28.30;;
8704;SDS011;4389;41.932;25.904;2024-02-21T06:50:39;42.27;;;27.77;;
8704;SDS011;4389;41.932;25.904;2024-02-21T06:53:06;40.67;;;31.23;;
8704;SDS011;4389;41.932;25.904;2024-02-21T06:55:33;46.97;;;30.60;;
8704;SDS011;4389;41.932;25.904;2024-02-21T06:58:01;52.20;;;32.83;;
8704;SDS011;4389;41.932;25.904;2024-02-21T07:00:28;37.13;;;30.23;;
8704;SDS011;4389;41.932;25.904;2024-02-21T07:02:55;34.50;;;27.60;;
8704;SDS011;4389;41.932;25.904;2024-02-21T07:05:23;42.90;;;30.87;;
8704;SDS011;4389;41.932;25.904;2024-02-21T07:07:50;37.03;;;28.33;;
8704;SDS011;4389;41.932;25.904;2024-02-21T07:10:17;47.33;;;29.17;;
8704;SDS011;4389;41.932;25.904;2024-02-21T07:12:43;40.83;;;28.80;;
8704;SDS011;4389;41.932;25.904;2024-02-21T07:15:12;35.40;;;25.53;;
8704;SDS011;4389;41.932;25.904;2024-02-21T07:17:38;35.50;;;26.87;;
8704;SDS011;4389;41.932;25.904;2024-02-21T07:20:06;53.83;;;35.23;;
8704;SDS011;4389;41.932;25.904;2024-02-21T07:22:34;40.50;;;30.10;;
8704;SDS011;4389;41.932;25.904;2024-02-21T07:25:00;46.53;;;32.27;;
8704;SDS011;4389;41.932;25.904;2024-02-21T07:27:27;46.43;;;33.57;;
8704;SDS011;4389;41.932;25.904;2024-02-21T07:29:56;43.27;;;30.73;;
8704;SDS011;4389;41.932;25.904;2024-02-21T07:32:24;51.83;;;25.40;;
8704;SDS011;4389;41.932;25.904;2024-02-21T07:34:51;27.90;;;19.97;;
8704;SDS011;4389;41.932;25.904;2024-02-21T07:37:18;25.03;;;19.77;;
8704;SDS011;4389;41.932;25.904;2024-02-21T07:39:45;30.23;;;19.87;;
8704;SDS011;4389;41.932;25.904;2024-02-21T07:42:12;26.90;;;19.83;;
8704;SDS011;4389;41.932;25.904;2024-02-21T07:44:39;24.03;;;18.83;;
8704;SDS011;4389;41.932;25.904;2024-02-21T07:47:05;32.60;;;18.70;;
8704;SDS011;4389;41.932;25.904;2024-02-21T07:49:40;26.23;;;19.83;;
8704;SDS011;4389;41.932;25.904;2024-02-21T07:52:07;35.00;;;21.13;;
8704;SDS011;4389;41.932;25.904;2024-02-21T07:54:34;37.03;;;22.47;;
8704;SDS011;4389;41.932;25.904;2024-02-21T07:57:01;31.40;;;20.93;;
8704;SDS011;4389;41.932;25.904;2024-02-21T07:59:28;34.63;;;20.97;;
8704;SDS011;4389;41.932;25.904;2024-02-21T08:01:56;27.97;;;19.57;;
8704;SDS011;4389;41.932;25.904;2024-02-21T08:04:23;28.07;;;21.60;;
8704;SDS011;4389;41.932;25.904;2024-02-21T08:06:52;26.33;;;21.13;;
8704;SDS011;4389;41.932;25.904;2024-02-21T08:09:21;43.40;;;20.70;;
8704;SDS011;4389;41.932;25.904;2024-02-21T08:11:48;30.47;;;21.60;;
8704;SDS011;4389;41.932;25.904;2024-02-21T08:14:15;32.90;;;22.03;;
8704;SDS011;4389;41.932;25.904;2024-02-21T08:16:42;31.23;;;21.10;;
8704;SDS011;4389;41.932;25.904;2024-02-21T08:19:10;29.37;;;21.80;;
8704;SDS011;4389;41.932;25.904;2024-02-21T08:21:37;35.57;;;21.63;;
8704;SDS011;4389;41.932;25.904;2024-02-21T08:24:05;28.93;;;20.63;;
8704;SDS011;4389;41.932;25.904;2024-02-21T08:26:32;30.67;;;22.33;;
8704;SDS011;4389;41.932;25.904;2024-02-21T08:28:59;30.67;;;21.23;;
8704;SDS011;4389;41.932;25.904;2024-02-21T08:31:26;31.90;;;20.87;;
8704;SDS011;4389;41.932;25.904;2024-02-21T08:33:56;33.07;;;24.40;;
8704;SDS011;4389;41.932;25.904;2024-02-21T08:36:27;33.10;;;23.20;;
8704;SDS011;4389;41.932;25.904;2024-02-21T08:38:55;34.73;;;23.03;;
8704;SDS011;4389;41.932;25.904;2024-02-21T08:41:23;26.90;;;21.20;;
8704;SDS011;4389;41.932;25.904;2024-02-21T08:43:50;28.13;;;22.07;;
8704;SDS011;4389;41.932;25.904;2024-02-21T08:46:19;28.90;;;20.87;;
8704;SDS011;4389;41.932;25.904;2024-02-21T08:48:46;25.43;;;20.53;;
8704;SDS011;4389;41.932;25.904;2024-02-21T08:51:13;28.47;;;21.73;;
8704;SDS011;4389;41.932;25.904;2024-02-21T08:53:40;28.23;;;22.23;;
8704;SDS011;4389;41.932;25.904;2024-02-21T08:56:06;30.83;;;24.47;;
8704;SDS011;4389;41.932;25.904;2024-02-21T08:58:36;29.43;;;21.57;;
8704;SDS011;4389;41.932;25.904;2024-02-21T09:01:04;33.80;;;24.73;;
8704;SDS011;4389;41.932;25.904;2024-02-21T09:03:32;33.93;;;24.27;;
8704;SDS011;4389;41.932;25.904;2024-02-21T09:05:59;28.00;;;22.10;;
8704;SDS011;4389;41.932;25.904;2024-02-21T09:08:26;29.77;;;22.03;;
8704;SDS011;4389;41.932;25.904;2024-02-21T09:10:53;27.87;;;22.20;;
8704;SDS011;4389;41.932;25.904;2024-02-21T09:13:20;29.40;;;22.83;;
8704;SDS011;4389;41.932;25.904;2024-02-21T09:15:50;31.27;;;23.70;;
8704;SDS011;4389;41.932;25.904;2024-02-21T09:18:17;29.83;;;23.20;;
8704;SDS011;4389;41.932;25.904;2024-02-21T09:20:44;33.37;;;23.23;;
8704;SDS011;4389;41.932;25.904;2024-02-21T09:23:12;33.20;;;24.17;;
8704;SDS011;4389;41.932;25.904;2024-02-21T09:25:39;27.73;;;21.03;;
8704;SDS011;4389;41.932;25.904;2024-02-21T09:28:06;28.93;;;20.77;;
8704;SDS011;4389;41.932;25.904;2024-02-21T09:30:33;27.90;;;21.47;;
8704;SDS011;4389;41.932;25.904;2024-02-21T09:33:01;32.37;;;20.43;;
8704;SDS011;4389;41.932;25.904;2024-02-21T09:35:30;26.03;;;21.03;;
8704;SDS011;4389;41.932;25.904;2024-02-21T09:37:58;26.60;;;20.83;;
8704;SDS011;4389;41.932;25.904;2024-02-21T09:40:25;24.33;;;18.00;;
8704;SDS011;4389;41.932;25.904;2024-02-21T09:42:55;24.40;;;18.47;;
8704;SDS011;4389;41.932;25.904;2024-02-21T09:45:30;24.63;;;18.57;;
8704;SDS011;4389;41.932;25.904;2024-02-21T09:48:05;23.30;;;17.33;;
8704;SDS011;4389;41.932;25.904;2024-02-21T09:50:46;20.90;;;16.73;;
8704;SDS011;4389;41.932;25.904;2024-02-21T09:53:15;23.53;;;17.43;;
8704;SDS011;4389;41.932;25.904;2024-02-21T09:55:43;29.17;;;17.67;;
8704;SDS011;4389;41.932;25.904;2024-02-21T09:58:11;20.60;;;16.90;;
8704;SDS011;4389;41.932;25.904;2024-02-21T10:00:38;20.93;;;17.57;;
8704;SDS011;4389;41.932;25.904;2024-02-21T10:03:06;24.83;;;18.47;;
8704;SDS011;4389;41.932;25.904;2024-02-21T10:05:34;22.83;;;19.47;;
8704;SDS011;4389;41.932;25.904;2024-02-21T10:08:02;33.43;;;18.57;;
8704;SDS011;4389;41.932;25.904;2024-02-21T10:10:29;23.33;;;19.63;;
8704;SDS011;4389;41.932;25.904;2024-02-21T10:13:06;27.30;;;19.13;;
8704;SDS011;4389;41.932;25.904;2024-02-21T10:15:33;20.53;;;17.60;;
8704;SDS011;4389;41.932;25.904;2024-02-21T10:18:00;18.30;;;14.97;;
8704;SDS011;4389;41.932;25.904;2024-02-21T10:20:30;22.27;;;15.50;;
8704;SDS011;4389;41.932;25.904;2024-02-21T10:23:02;17.90;;;15.40;;
8704;SDS011;4389;41.932;25.904;2024-02-21T10:25:33;18.70;;;14.70;;
8704;SDS011;4389;41.932;25.904;2024-02-21T10:28:00;20.80;;;15.50;;
8704;SDS011;4389;41.932;25.904;2024-02-21T10:30:29;23.97;;;17.43;;
8704;SDS011;4389;41.932;25.904;2024-02-21T10:32:56;20.87;;;15.53;;
8704;SDS011;4389;41.932;25.904;2024-02-21T10:35:25;17.90;;;14.80;;
8704;SDS011;4389;41.932;25.904;2024-02-21T10:37:57;20.90;;;15.20;;
8704;SDS011;4389;41.932;25.904;2024-02-21T10:40:25;18.50;;;15.57;;
8704;SDS011;4389;41.932;25.904;2024-02-21T10:42:56;18.83;;;14.70;;
8704;SDS011;4389;41.932;25.904;2024-02-21T10:45:29;20.80;;;15.53;;
8704;SDS011;4389;41.932;25.904;2024-02-21T10:48:01;22.77;;;15.57;;
8704;SDS011;4389;41.932;25.904;2024-02-21T10:50:36;24.80;;;16.07;;
8704;SDS011;4389;41.932;25.904;2024-02-21T10:53:15;18.27;;;15.47;;
8704;SDS011;4389;41.932;25.904;2024-02-21T10:55:51;22.50;;;15.60;;
8704;SDS011;4389;41.932;25.904;2024-02-21T10:58:25;21.83;;;16.00;;
8704;SDS011;4389;41.932;25.904;2024-02-21T11:00:53;24.97;;;16.80;;
8704;SDS011;4389;41.932;25.904;2024-02-21T11:03:20;20.73;;;17.07;;
8704;SDS011;4389;41.932;25.904;2024-02-21T11:05:48;19.80;;;14.80;;
8704;SDS011;4389;41.932;25.904;2024-02-21T11:08:17;23.47;;;16.00;;
8704;SDS011;4389;41.932;25.904;2024-02-21T11:10:45;31.97;;;15.10;;
8704;SDS011;4389;41.932;25.904;2024-02-21T11:13:12;30.50;;;16.67;;
8704;SDS011;4389;41.932;25.904;2024-02-21T11:15:39;20.80;;;15.43;;
8704;SDS011;4389;41.932;25.904;2024-02-21T11:18:06;18.30;;;15.10;;
8704;SDS011;4389;41.932;25.904;2024-02-21T11:20:33;28.70;;;15.63;;
8704;SDS011;4389;41.932;25.904;2024-02-21T11:23:01;36.23;;;14.57;;
8704;SDS011;4389;41.932;25.904;2024-02-21T11:25:29;19.47;;;13.30;;
8704;SDS011;4389;41.932;25.904;2024-02-21T11:27:59;15.50;;;12.20;;
8704;SDS011;4389;41.932;25.904;2024-02-21T11:30:26;21.43;;;12.73;;
8704;SDS011;4389;41.932;25.904;2024-02-21T11:32:58;24.17;;;13.33;;
8704;SDS011;4389;41.932;25.904;2024-02-21T11:35:26;16.00;;;12.33;;
8704;SDS011;4389;41.932;25.904;2024-02-21T11:38:07;12.40;;;11.07;;
8704;SDS011;4389;41.932;25.904;2024-02-21T11:40:37;12.07;;;10.77;;
8704;SDS011;4389;41.932;25.904;2024-02-21T11:43:05;14.27;;;10.13;;
8704;SDS011;4389;41.932;25.904;2024-02-21T11:45:32;13.23;;;10.63;;
8704;SDS011;4389;41.932;25.904;2024-02-21T11:47:59;13.03;;;10.40;;
8704;SDS011;4389;41.932;25.904;2024-02-21T11:50:28;11.70;;;10.20;;
8704;SDS011;4389;41.932;25.904;2024-02-21T11:52:57;13.60;;;10.50;;
8704;SDS011;4389;41.932;25.904;2024-02-21T11:55:24;15.50;;;11.40;;
8704;SDS011;4389;41.932;25.904;2024-02-21T11:57:52;12.83;;;9.43;;
8704;SDS011;4389;41.932;25.904;2024-02-21T12:00:19;12.63;;;10.10;;
8704;SDS011;4389;41.932;25.904;2024-02-21T12:02:47;15.43;;;11.27;;
8704;SDS011;4389;41.932;25.904;2024-02-21T12:05:15;20.93;;;10.93;;
8704;SDS011;4389;41.932;25.904;2024-02-21T12:07:42;13.83;;;11.10;;
8704;SDS011;4389;41.932;25.904;2024-02-21T12:10:10;13.23;;;10.80;;
8704;SDS011;4389;41.932;25.904;2024-02-21T12:12:37;14.97;;;11.23;;
8704;SDS011;4389;41.932;25.904;2024-02-21T12:15:06;13.17;;;10.53;;
8704;SDS011;4389;41.932;25.904;2024-02-21T12:17:34;12.70;;;10.63;;
8704;SDS011;4389;41.932;25.904;2024-02-21T12:20:01;12.17;;;9.93;;
8704;SDS011;4389;41.932;25.904;2024-02-21T12:22:33;14.83;;;10.50;;
8704;SDS011;4389;41.932;25.904;2024-02-21T12:25:02;15.53;;;10.43;;
8704;SDS011;4389;41.932;25.904;2024-02-21T12:27:29;36.90;;;11.00;;
8704;SDS011;4389;41.932;25.904;2024-02-21T12:29:56;13.40;;;9.80;;
8704;SDS011;4389;41.932;25.904;2024-02-21T12:32:24;15.53;;;10.23;;
8704;SDS011;4389;41.932;25.904;2024-02-21T12:34:51;16.00;;;10.57;;
8704;SDS011;4389;41.932;25.904;2024-02-21T12:37:18;21.57;;;10.30;;
8704;SDS011;4389;41.932;25.904;2024-02-21T12:39:45;15.53;;;10.50;;
8704;SDS011;4389;41.932;25.904;2024-02-21T12:42:11;13.00;;;10.20;;
8704;SDS011;4389;41.932;25.904;2024-02-21T12:44:38;11.63;;;9.93;;
8704;SDS011;4389;41.932;25.904;2024-02-21T12:47:05;12.67;;;9.60;;
8704;SDS011;4389;41.932;25.904;2024-02-21T12:49:34;17.97;;;11.63;;
8704;SDS011;4389;41.932;25.904;2024-02-21T12:52:01;14.40;;;10.37;;
8704;SDS011;4389;41.932;25.904;2024-02-21T12:54:29;16.80;;;12.73;;
8704;SDS011;4389;41.932;25.904;2024-02-21T12:56:56;24.37;;;14.00;;
8704;SDS011;4389;41.932;25.904;2024-02-21T12:59:23;17.53;;;13.17;;
8704;SDS011;4389;41.932;25.904;2024-02-21T13:01:51;23.00;;;13.87;;
8704;SDS011;4389;41.932;25.904;2024-02-21T13:04:18;14.17;;;11.50;;
8704;SDS011;4389;41.932;25.904;2024-02-21T13:06:48;13.47;;;10.67;;
8704;SDS011;4389;41.932;25.904;2024-02-21T13:09:15;17.07;;;11.30;;
8704;SDS011;4389;41.932;25.904;2024-02-21T13:11:42;15.90;;;12.10;;
8704;SDS011;4389;41.932;25.904;2024-02-21T13:14:10;21.90;;;11.30;;
8704;SDS011;4389;41.932;25.904;2024-02-21T13:16:37;12.77;;;9.73;;
8704;SDS011;4389;41.932;25.904;2024-02-21T13:19:05;27.03;;;11.73;;
8704;SDS011;4389;41.932;25.904;2024-02-21T13:21:33;15.10;;;10.67;;
8704;SDS011;4389;41.932;25.904;2024-02-21T13:24:01;11.80;;;10.03;;
8704;SDS011;4389;41.932;25.904;2024-02-21T13:26:28;12.07;;;9.43;;
8704;SDS011;4389;41.932;25.904;2024-02-21T13:28:55;13.33;;;10.63;;
8704;SDS011;4389;41.932;25.904;2024-02-21T13:31:22;34.97;;;10.83;;
8704;SDS011;4389;41.932;25.904;2024-02-21T13:33:50;14.97;;;9.20;;
8704;SDS011;4389;41.932;25.904;2024-02-21T13:36:17;12.10;;;8.70;;
8704;SDS011;4389;41.932;25.904;2024-02-21T13:38:44;16.33;;;10.17;;
8704;SDS011;4389;41.932;25.904;2024-02-21T13:41:13;17.47;;;9.20;;
8704;SDS011;4389;41.932;25.904;2024-02-21T13:43:40;12.93;;;9.50;;
8704;SDS011;4389;41.932;25.904;2024-02-21T13:46:07;11.60;;;9.10;;
8704;SDS011;4389;41.932;25.904;2024-02-21T13:48:35;10.63;;;8.47;;
8704;SDS011;4389;41.932;25.904;2024-02-21T13:51:02;14.67;;;9.90;;
8704;SDS011;4389;41.932;25.904;2024-02-21T13:53:29;23.77;;;9.57;;
8704;SDS011;4389;41.932;25.904;2024-02-21T13:55:56;12.37;;;9.40;;
8704;SDS011;4389;41.932;25.904;2024-02-21T13:58:24;10.77;;;9.00;;
8704;SDS011;4389;41.932;25.904;2024-02-21T14:00:51;10.23;;;9.00;;
8704;SDS011;4389;41.932;25.904;2024-02-21T14:03:18;9.90;;;8.07;;
8704;SDS011;4389;41.932;25.904;2024-02-21T14:05:46;10.03;;;7.53;;
8704;SDS011;4389;41.932;25.904;2024-02-21T14:08:13;19.17;;;10.93;;
8704;SDS011;4389;41.932;25.904;2024-02-21T14:10:41;10.43;;;7.93;;
8704;SDS011;4389;41.932;25.904;2024-02-21T14:13:07;15.17;;;8.40;;
8704;SDS011;4389;41.932;25.904;2024-02-21T14:15:36;17.30;;;10.17;;
8704;SDS011;4389;41.932;25.904;2024-02-21T14:18:06;8.73;;;7.90;;
8704;SDS011;4389;41.932;25.904;2024-02-21T14:20:34;10.27;;;8.20;;
8704;SDS011;4389;41.932;25.904;2024-02-21T14:23:02;11.67;;;8.50;;
8704;SDS011;4389;41.932;25.904;2024-02-21T14:25:29;13.20;;;9.13;;
8704;SDS011;4389;41.932;25.904;2024-02-21T14:27:56;14.43;;;8.17;;
8704;SDS011;4389;41.932;25.904;2024-02-21T14:30:23;11.30;;;8.20;;
8704;SDS011;4389;41.932;25.904;2024-02-21T14:32:52;17.23;;;9.03;;
8704;SDS011;4389;41.932;25.904;2024-02-21T14:35:18;12.13;;;9.37;;
8704;SDS011;4389;41.932;25.904;2024-02-21T14:37:45;12.70;;;8.83;;
8704;SDS011;4389;41.932;25.904;2024-02-21T14:40:14;11.43;;;8.10;;